Time,TemperatureF,DewpointF,PressureIn,WindDirection,WindDirectionDegrees,WindSpeedMPH,WindSpeedGustMPH,Humidity,HourlyPrecipIn,Conditions,Clouds,dailyrainin,SoftwareType,DateUTC
2013-07-27 00:05:00,66.3,52.0,29.95,ENE,67,0.0,0.0,60,0.00,,,0.00,Wunderground v.1.15,2013-07-27 07:05:00,
2013-07-27 00:15:00,66.0,52.2,29.95,ENE,67,0.0,0.0,61,0.00,,,0.00,Wunderground v.1.15,2013-07-27 07:15:00,
2013-07-27 00:20:00,65.8,52.0,29.95,ENE,67,0.0,0.0,61,0.00,,,0.00,Wunderground v.1.15,2013-07-27 07:20:00,
2013-07-27 00:25:00,65.6,52.2,29.95,ENE,67,0.0,0.0,62,0.00,,,0.00,Wunderground v.1.15,2013-07-27 07:25:00,
2013-07-27 00:30:00,65.5,52.1,29.95,ENE,67,0.0,0.0,62,0.00,,,0.00,Wunderground v.1.15,2013-07-27 07:30:00,
2013-07-27 00:40:00,65.0,51.7,29.95,ENE,67,0.0,0.0,62,0.00,,,0.00,Wunderground v.1.15,2013-07-27 07:40:00,
2013-07-27 00:45:00,64.8,51.9,29.94,ENE,67,0.0,0.0,63,0.00,,,0.00,Wunderground v.1.15,2013-07-27 07:45:00,
2013-07-27 00:55:00,64.5,51.6,29.94,ENE,67,0.0,0.0,63,0.00,,,0.00,Wunderground v.1.15,2013-07-27 07:55:00,
2013-07-27 01:00:00,64.3,51.4,29.94,ENE,67,0.0,0.0,63,0.00,,,0.00,Wunderground v.1.15,2013-07-27 08:00:00,
2013-07-27 01:05:00,64.0,51.6,29.94,ENE,67,0.0,0.0,64,0.00,,,0.00,Wunderground v.1.15,2013-07-27 08:05:00,
2013-07-27 01:10:00,64.0,51.6,29.94,ENE,67,0.0,0.0,64,0.00,,,0.00,Wunderground v.1.15,2013-07-27 08:10:00,
2013-07-27 01:20:00,63.7,51.3,29.94,ENE,67,0.0,0.0,64,0.00,,,0.00,Wunderground v.1.15,2013-07-27 08:20:00,
2013-07-27 01:25:00,63.5,51.5,29.94,ENE,66,0.0,0.0,65,0.00,,,0.00,Wunderground v.1.15,2013-07-27 08:25:00,
2013-07-27 01:30:00,63.2,51.2,29.94,ENE,67,0.0,0.0,65,0.00,,,0.00,Wunderground v.1.15,2013-07-27 08:30:00,
2013-07-27 01:40:00,62.9,51.4,29.94,ENE,67,0.0,0.0,66,0.00,,,0.00,Wunderground v.1.15,2013-07-27 08:40:00,
2013-07-27 01:45:00,62.7,51.2,29.94,ENE,67,0.0,0.0,66,0.00,,,0.00,Wunderground v.1.15,2013-07-27 08:45:00,
2013-07-27 01:50:00,62.6,51.1,29.94,ENE,67,0.0,0.0,66,0.00,,,0.00,Wunderground v.1.15,2013-07-27 08:50:00,
2013-07-27 02:00:00,62.4,51.3,29.94,ENE,67,0.0,0.0,67,0.00,,,0.00,Wunderground v.1.15,2013-07-27 09:00:00,
2013-07-27 02:05:00,62.3,51.2,29.94,ENE,67,0.0,0.0,67,0.00,,,0.00,Wunderground v.1.15,2013-07-27 09:05:00,
2013-07-27 02:10:00,62.1,51.0,29.94,ENE,67,0.0,0.0,67,0.00,,,0.00,Wunderground v.1.15,2013-07-27 09:10:00,
2013-07-27 02:20:00,61.8,51.1,29.93,ENE,67,0.0,0.0,68,0.00,,,0.00,Wunderground v.1.15,2013-07-27 09:20:00,
2013-07-27 02:25:00,61.5,50.8,29.93,ENE,67,0.0,0.0,68,0.00,,,0.00,Wunderground v.1.15,2013-07-27 09:25:00,
2013-07-27 02:35:00,61.2,50.9,29.93,ENE,67,0.0,0.0,69,0.00,,,0.00,Wunderground v.1.15,2013-07-27 09:35:00,
2013-07-27 02:40:00,61.2,50.9,29.93,ENE,67,0.0,0.0,69,0.00,,,0.00,Wunderground v.1.15,2013-07-27 09:40:00,
2013-07-27 02:50:00,60.9,50.7,29.93,ENE,67,0.0,0.0,69,0.00,,,0.00,Wunderground v.1.15,2013-07-27 09:50:00,
2013-07-27 02:55:00,60.7,50.5,29.93,ENE,67,0.0,0.0,69,0.00,,,0.00,Wunderground v.1.15,2013-07-27 09:55:00,
2013-07-27 03:00:00,60.5,50.3,29.93,ENE,67,0.0,0.0,69,0.00,,,0.00,Wunderground v.1.15,2013-07-27 10:00:00,
2013-07-27 03:10:00,60.4,51.0,29.93,ENE,67,0.0,0.0,71,0.00,,,0.00,Wunderground v.1.15,2013-07-27 10:10:00,
2013-07-27 03:15:00,60.2,50.8,29.93,ENE,67,0.0,0.0,71,0.00,,,0.00,Wunderground v.1.15,2013-07-27 10:15:00,
2013-07-27 03:25:00,59.9,50.5,29.93,ENE,67,0.0,0.0,71,0.00,,,0.00,Wunderground v.1.15,2013-07-27 10:25:00,
2013-07-27 03:35:00,59.8,50.4,29.93,ENE,67,0.0,0.0,71,0.00,,,0.00,Wunderground v.1.15,2013-07-27 10:35:00,
2013-07-27 03:40:00,59.6,50.6,29.93,ENE,67,0.0,0.0,72,0.00,,,0.00,Wunderground v.1.15,2013-07-27 10:40:00,
2013-07-27 03:45:00,59.5,50.5,29.93,ENE,67,0.0,0.0,72,0.00,,,0.00,Wunderground v.1.15,2013-07-27 10:45:00,
2013-07-27 03:55:00,59.2,50.2,29.93,ENE,67,0.0,0.0,72,0.00,,,0.00,Wunderground v.1.15,2013-07-27 10:55:00,
2013-07-27 04:00:00,58.9,50.3,29.93,ENE,67,0.0,0.0,73,0.00,,,0.00,Wunderground v.1.15,2013-07-27 11:00:00,
2013-07-27 04:10:00,58.6,50.0,29.93,ENE,67,0.0,0.0,73,0.00,,,0.00,Wunderground v.1.15,2013-07-27 11:10:00,
2013-07-27 04:15:00,58.4,49.8,29.93,ENE,67,0.0,0.0,73,0.00,,,0.00,Wunderground v.1.15,2013-07-27 11:15:00,
2013-07-27 04:20:00,58.1,49.9,29.93,ENE,67,0.0,0.0,74,0.00,,,0.00,Wunderground v.1.15,2013-07-27 11:20:00,
2013-07-27 04:25:00,58.1,49.9,29.93,ENE,67,0.0,0.0,74,0.00,,,0.00,Wunderground v.1.15,2013-07-27 11:25:00,
2013-07-27 04:30:00,58.1,49.9,29.93,ENE,67,0.0,0.0,74,0.00,,,0.00,Wunderground v.1.15,2013-07-27 11:30:00,
2013-07-27 04:40:00,57.8,49.9,29.93,ENE,67,0.0,1.0,75,0.00,,,0.00,Wunderground v.1.15,2013-07-27 11:40:00,
2013-07-27 04:45:00,57.8,49.9,29.93,ENE,67,0.0,1.0,75,0.00,,,0.00,Wunderground v.1.15,2013-07-27 11:45:00,
2013-07-27 04:55:00,57.6,49.7,29.93,ENE,67,0.0,0.0,75,0.00,,,0.00,Wunderground v.1.15,2013-07-27 11:55:00,
2013-07-27 05:00:00,57.5,50.0,29.93,ENE,67,0.0,0.0,76,0.00,,,0.00,Wunderground v.1.15,2013-07-27 12:00:00,
2013-07-27 05:05:00,57.3,49.8,29.93,ENE,67,0.0,0.0,76,0.00,,,0.00,Wunderground v.1.15,2013-07-27 12:05:00,
2013-07-27 05:15:00,57.2,49.7,29.93,ENE,67,0.0,0.0,76,0.00,,,0.00,Wunderground v.1.15,2013-07-27 12:15:00,
2013-07-27 05:20:00,57.0,49.5,29.93,ENE,67,0.0,0.0,76,0.00,,,0.00,Wunderground v.1.15,2013-07-27 12:20:00,
2013-07-27 05:25:00,56.9,49.4,29.93,ENE,67,0.0,0.0,76,0.00,,,0.00,Wunderground v.1.15,2013-07-27 12:25:00,
2013-07-27 05:30:00,56.9,49.8,29.93,ENE,67,0.0,0.0,77,0.00,,,0.00,Wunderground v.1.15,2013-07-27 12:30:00,
2013-07-27 05:40:00,56.7,49.6,29.93,ENE,67,0.0,0.0,77,0.00,,,0.00,Wunderground v.1.15,2013-07-27 12:40:00,
2013-07-27 05:45:00,56.7,49.6,29.94,ENE,67,0.0,0.0,77,0.00,,,0.00,Wunderground v.1.15,2013-07-27 12:45:00,
2013-07-27 05:50:00,56.7,49.6,29.94,ENE,67,0.0,0.0,77,0.00,,,0.00,Wunderground v.1.15,2013-07-27 12:50:00,
2013-07-27 06:00:00,56.5,49.4,29.94,ENE,67,0.0,0.0,77,0.00,,,0.00,Wunderground v.1.15,2013-07-27 13:00:00,
2013-07-27 06:05:00,56.5,49.4,29.94,ENE,67,0.0,0.0,77,0.00,,,0.00,Wunderground v.1.15,2013-07-27 13:05:00,
2013-07-27 06:10:00,56.5,49.4,29.94,ENE,67,0.0,0.0,77,0.00,,,0.00,Wunderground v.1.15,2013-07-27 13:10:00,
2013-07-27 06:15:00,56.3,49.2,29.94,ENE,67,0.0,0.0,77,0.00,,,0.00,Wunderground v.1.15,2013-07-27 13:15:00,
2013-07-27 06:25:00,56.0,49.2,29.94,ENE,67,0.0,0.0,78,0.00,,,0.00,Wunderground v.1.15,2013-07-27 13:25:00,
2013-07-27 06:30:00,56.0,49.2,29.94,ENE,67,0.0,0.0,78,0.00,,,0.00,Wunderground v.1.15,2013-07-27 13:30:00,
2013-07-27 06:40:00,56.0,49.2,29.94,ENE,67,0.0,0.0,78,0.00,,,0.00,Wunderground v.1.15,2013-07-27 13:40:00,
2013-07-27 06:45:00,56.2,49.4,29.94,ENE,67,0.0,0.0,78,0.00,,,0.00,Wunderground v.1.15,2013-07-27 13:45:00,
2013-07-27 06:55:00,56.9,50.1,29.94,ENE,67,0.0,0.0,78,0.00,,,0.00,Wunderground v.1.15,2013-07-27 13:55:00,
2013-07-27 07:00:00,57.3,50.1,29.94,ENE,67,0.0,0.0,77,0.00,,,0.00,Wunderground v.1.15,2013-07-27 14:00:00,
2013-07-27 07:10:00,58.4,50.9,29.94,ENE,67,0.0,0.0,76,0.00,,,0.00,Wunderground v.1.15,2013-07-27 14:10:00,
2013-07-27 07:15:00,59.2,51.3,29.93,ENE,67,0.0,0.0,75,0.00,,,0.00,Wunderground v.1.15,2013-07-27 14:15:00,
2013-07-27 07:25:00,60.5,51.8,29.93,ENE,67,0.0,0.0,73,0.00,,,0.00,Wunderground v.1.15,2013-07-27 14:25:00,
2013-07-27 07:30:00,61.0,52.3,29.93,ENE,67,0.0,0.0,73,0.00,,,0.00,Wunderground v.1.15,2013-07-27 14:30:00,
2013-07-27 07:35:00,61.8,52.3,29.93,ENE,67,0.0,0.0,71,0.00,,,0.00,Wunderground v.1.15,2013-07-27 14:35:00,
2013-07-27 07:45:00,63.1,52.8,29.93,North,355,0.0,0.0,69,0.00,,,0.00,Wunderground v.1.15,2013-07-27 14:45:00,
2013-07-27 07:50:00,63.9,52.7,29.93,North,355,0.0,0.0,67,0.00,,,0.00,Wunderground v.1.15,2013-07-27 14:50:00,
2013-07-27 07:55:00,64.5,52.9,29.93,North,355,0.0,0.0,66,0.00,,,0.00,Wunderground v.1.15,2013-07-27 14:55:00,
2013-07-27 08:00:00,65.3,53.2,29.93,North,355,0.0,0.0,65,0.00,,,0.00,Wunderground v.1.15,2013-07-27 15:00:00,
2013-07-27 08:10:00,67.4,53.5,29.93,East,80,0.0,0.0,61,0.00,,,0.00,Wunderground v.1.15,2013-07-27 15:10:00,
2013-07-27 08:15:00,68.1,53.2,29.93,East,80,0.0,0.0,59,0.00,,,0.00,Wunderground v.1.15,2013-07-27 15:15:00,
2013-07-27 08:20:00,68.8,53.9,29.93,East,80,0.0,0.0,59,0.00,,,0.00,Wunderground v.1.15,2013-07-27 15:20:00,
2013-07-27 08:25:00,69.4,54.0,29.93,East,80,0.0,0.0,58,0.00,,,0.00,Wunderground v.1.15,2013-07-27 15:25:00,
2013-07-27 08:35:00,70.8,54.3,29.93,East,80,0.0,1.0,56,0.00,,,0.00,Wunderground v.1.15,2013-07-27 15:35:00,
2013-07-27 08:40:00,71.1,54.1,29.93,East,80,0.0,0.0,55,0.00,,,0.00,Wunderground v.1.15,2013-07-27 15:40:00,
2013-07-27 08:45:00,72.0,54.4,29.93,East,80,1.0,1.0,54,0.00,,,0.00,Wunderground v.1.15,2013-07-27 15:45:00,
2013-07-27 08:55:00,73.2,55.0,29.93,East,80,1.0,1.0,53,0.00,,,0.00,Wunderground v.1.15,2013-07-27 15:55:00,
2013-07-27 09:00:00,73.5,54.8,29.93,East,87,1.0,1.0,52,0.00,,,0.00,Wunderground v.1.15,2013-07-27 16:00:00,
2013-07-27 09:05:00,74.0,54.2,29.93,East,86,1.0,1.0,50,0.00,,,0.00,Wunderground v.1.15,2013-07-27 16:05:00,
2013-07-27 09:15:00,75.6,55.1,29.92,East,87,1.0,3.0,49,0.00,,,0.00,Wunderground v.1.15,2013-07-27 16:15:00,
2013-07-27 09:20:00,75.8,54.7,29.92,East,80,1.0,2.0,48,0.00,,,0.00,Wunderground v.1.15,2013-07-27 16:20:00,
2013-07-27 09:25:00,76.5,55.3,29.92,East,85,2.0,3.0,48,0.00,,,0.00,Wunderground v.1.15,2013-07-27 16:25:00,
2013-07-27 09:30:00,76.7,55.0,29.91,ENE,63,2.0,2.0,47,0.00,,,0.00,Wunderground v.1.15,2013-07-27 16:30:00,
2013-07-27 09:40:00,77.6,54.6,29.91,East,98,3.0,3.0,45,0.00,,,0.00,Wunderground v.1.15,2013-07-27 16:40:00,
2013-07-27 09:45:00,77.9,54.8,29.91,ENE,67,3.0,3.0,45,0.00,,,0.00,Wunderground v.1.15,2013-07-27 16:45:00,
2013-07-27 09:50:00,78.6,54.2,29.91,East,88,3.0,3.0,43,0.00,,,0.00,Wunderground v.1.15,2013-07-27 16:50:00,
2013-07-27 10:00:00,79.4,54.3,29.90,East,79,3.0,3.0,42,0.00,,,0.00,Wunderground v.1.15,2013-07-27 17:00:00,
2013-07-27 10:05:00,79.9,54.1,29.90,East,88,3.0,5.0,41,0.00,,,0.00,Wunderground v.1.15,2013-07-27 17:05:00,
2013-07-27 10:10:00,80.5,54.6,29.90,ENE,69,3.0,4.0,41,0.00,,,0.00,Wunderground v.1.15,2013-07-27 17:10:00,
2013-07-27 10:15:00,81.1,54.5,29.90,ENE,64,3.0,4.0,40,0.00,,,0.00,Wunderground v.1.15,2013-07-27 17:15:00,
2013-07-27 10:20:00,81.2,53.9,29.90,East,95,3.0,7.0,39,0.00,,,0.00,Wunderground v.1.15,2013-07-27 17:20:00,
2013-07-27 10:30:00,82.2,54.1,29.90,East,89,4.0,6.0,38,0.00,,,0.00,Wunderground v.1.15,2013-07-27 17:30:00,
2013-07-27 10:35:00,83.0,54.8,29.90,ENE,76,4.0,6.0,38,0.00,,,0.00,Wunderground v.1.15,2013-07-27 17:35:00,
2013-07-27 10:40:00,83.4,54.4,29.90,ENE,77,5.0,5.0,37,0.00,,,0.00,Wunderground v.1.15,2013-07-27 17:40:00,
2013-07-27 10:50:00,84.5,53.8,29.89,East,87,4.0,6.0,35,0.00,,,0.00,Wunderground v.1.15,2013-07-27 17:50:00,
2013-07-27 10:55:00,84.5,53.8,29.89,East,85,4.0,6.0,35,0.00,,,0.00,Wunderground v.1.15,2013-07-27 17:55:00,
2013-07-27 11:00:00,85.1,55.1,29.89,East,82,4.0,4.0,36,0.00,,,0.00,Wunderground v.1.15,2013-07-27 18:00:00,
2013-07-27 11:10:00,85.9,53.5,29.89,ENE,70,4.0,4.0,33,0.00,,,0.00,Wunderground v.1.15,2013-07-27 18:10:00,
2013-07-27 11:15:00,86.5,53.1,29.88,East,84,5.0,5.0,32,0.00,,,0.00,Wunderground v.1.15,2013-07-27 18:15:00,
2013-07-27 11:20:00,87.2,52.9,29.88,ENE,73,5.0,5.0,31,0.00,,,0.00,Wunderground v.1.15,2013-07-27 18:20:00,
2013-07-27 11:25:00,87.4,52.2,29.88,ENE,63,5.0,5.0,30,0.00,,,0.00,Wunderground v.1.15,2013-07-27 18:25:00,
2013-07-27 11:30:00,88.2,51.9,29.88,East,85,5.0,8.0,29,0.00,,,0.00,Wunderground v.1.15,2013-07-27 18:30:00,
2013-07-27 11:40:00,89.0,52.6,29.88,East,95,5.0,5.0,29,0.00,,,0.00,Wunderground v.1.15,2013-07-27 18:40:00,
2013-07-27 11:45:00,89.5,53.0,29.88,East,81,5.0,11.0,29,0.00,,,0.00,Wunderground v.1.15,2013-07-27 18:45:00,
2013-07-27 11:50:00,89.9,52.4,29.88,SE,128,5.0,5.0,28,0.00,,,0.00,Wunderground v.1.15,2013-07-27 18:50:00,
2013-07-27 12:00:00,90.3,52.8,29.87,East,86,4.0,7.0,28,0.00,,,0.00,Wunderground v.1.15,2013-07-27 19:00:00,
2013-07-27 12:05:00,90.7,53.1,29.87,SSE,148,4.0,7.0,28,0.00,,,0.00,Wunderground v.1.15,2013-07-27 19:05:00,
2013-07-27 12:10:00,91.0,55.3,29.87,NW,308,4.0,6.0,30,0.00,,,0.00,Wunderground v.1.15,2013-07-27 19:10:00,
2013-07-27 12:20:00,90.7,52.1,29.86,East,86,2.0,2.0,27,0.00,,,0.00,Wunderground v.1.15,2013-07-27 19:20:00,
2013-07-27 12:25:00,91.2,54.5,29.86,NE,50,2.0,4.0,29,0.00,,,0.00,Wunderground v.1.15,2013-07-27 19:25:00,
2013-07-27 12:30:00,92.1,54.3,29.86,NNE,26,2.0,4.0,28,0.00,,,0.00,Wunderground v.1.15,2013-07-27 19:30:00,
2013-07-27 12:35:00,92.7,53.8,29.86,ENE,71,3.0,4.0,27,0.00,,,0.00,Wunderground v.1.15,2013-07-27 19:35:00,
2013-07-27 12:45:00,92.5,52.6,29.86,NE,51,4.0,4.0,26,0.00,,,0.00,Wunderground v.1.15,2013-07-27 19:45:00,
2013-07-27 12:55:00,92.1,54.3,29.86,NE,42,4.0,4.0,28,0.00,,,0.00,Wunderground v.1.15,2013-07-27 19:55:00,
2013-07-27 13:00:00,92.3,52.5,29.85,NE,37,4.0,5.0,26,0.00,,,0.00,Wunderground v.1.15,2013-07-27 20:00:00,
2013-07-27 13:10:00,93.4,52.3,29.85,NNW,336,3.0,5.0,25,0.00,,,0.00,Wunderground v.1.15,2013-07-27 20:10:00,
2013-07-27 13:15:00,92.5,51.6,29.85,NW,321,3.0,5.0,25,0.00,,,0.00,Wunderground v.1.15,2013-07-27 20:15:00,
2013-07-27 13:25:00,92.5,52.6,29.85,NNE,20,5.0,5.0,26,0.00,,,0.00,Wunderground v.1.15,2013-07-27 20:25:00,
2013-07-27 13:30:00,92.3,51.4,29.85,NNE,17,4.0,4.0,25,0.00,,,0.00,Wunderground v.1.15,2013-07-27 20:30:00,
2013-07-27 13:35:00,92.9,51.9,29.85,NE,46,4.0,4.0,25,0.00,,,0.00,Wunderground v.1.15,2013-07-27 20:35:00,
2013-07-27 13:40:00,93.4,52.3,29.85,North,350,4.0,4.0,25,0.00,,,0.00,Wunderground v.1.15,2013-07-27 20:40:00,
2013-07-27 13:50:00,92.9,53.0,29.84,ESE,104,5.0,5.0,26,0.00,,,0.00,Wunderground v.1.15,2013-07-27 20:50:00,
2013-07-27 13:55:00,92.9,53.0,29.84,ENE,76,4.0,8.0,26,0.00,,,0.00,Wunderground v.1.15,2013-07-27 20:55:00,
2013-07-27 14:00:00,92.5,52.6,29.83,SE,130,5.0,5.0,26,0.00,,,0.00,Wunderground v.1.15,2013-07-27 21:00:00,
2013-07-27 14:10:00,93.2,52.1,29.83,NNW,346,5.0,5.0,25,0.00,,,0.00,Wunderground v.1.15,2013-07-27 21:10:00,
2013-07-27 14:15:00,92.7,51.7,29.83,NNE,26,4.0,5.0,25,0.00,,,0.00,Wunderground v.1.15,2013-07-27 21:15:00,
2013-07-27 14:20:00,92.5,53.7,29.83,NNE,30,4.0,5.0,27,0.00,,,0.00,Wunderground v.1.15,2013-07-27 21:20:00,
2013-07-27 14:30:00,92.7,53.8,29.83,ENE,64,5.0,9.0,27,0.00,,,0.00,Wunderground v.1.15,2013-07-27 21:30:00,
2013-07-27 14:35:00,92.1,52.3,29.83,East,86,7.0,10.0,26,0.00,,,0.00,Wunderground v.1.15,2013-07-27 21:35:00,
2013-07-27 14:40:00,93.2,54.3,29.83,ESE,117,6.0,7.0,27,0.00,,,0.00,Wunderground v.1.15,2013-07-27 21:40:00,
2013-07-27 14:45:00,92.5,52.6,29.82,East,101,6.0,7.0,26,0.00,,,0.00,Wunderground v.1.15,2013-07-27 21:45:00,
2013-07-27 14:50:00,92.7,53.8,29.82,ENE,67,6.0,8.0,27,0.00,,,0.00,Wunderground v.1.15,2013-07-27 21:50:00,
2013-07-27 15:00:00,92.9,53.0,29.82,SE,134,6.0,6.0,26,0.00,,,0.00,Wunderground v.1.15,2013-07-27 22:00:00,
2013-07-27 15:05:00,93.4,53.4,29.82,East,83,5.0,6.0,26,0.00,,,0.00,Wunderground v.1.15,2013-07-27 22:05:00,
2013-07-27 15:10:00,92.7,52.8,29.82,East,87,6.0,6.0,26,0.00,,,0.00,Wunderground v.1.15,2013-07-27 22:10:00,
2013-07-27 15:20:00,93.6,47.8,29.82,ENE,75,6.0,9.0,21,0.00,,,0.00,Wunderground v.1.15,2013-07-27 22:20:00,
2013-07-27 15:25:00,93.4,52.3,29.82,ENE,61,6.0,9.0,25,0.00,,,0.00,Wunderground v.1.15,2013-07-27 22:25:00,
2013-07-27 15:30:00,94.0,53.9,29.80,NE,55,5.0,5.0,26,0.00,,,0.00,Wunderground v.1.15,2013-07-27 22:30:00,
2013-07-27 15:35:00,94.0,52.8,29.80,NE,51,4.0,5.0,25,0.00,,,0.00,Wunderground v.1.15,2013-07-27 22:35:00,
2013-07-27 15:40:00,94.0,52.8,29.80,East,79,5.0,5.0,25,0.00,,,0.00,Wunderground v.1.15,2013-07-27 22:40:00,
2013-07-27 15:50:00,94.0,51.7,29.80,East,95,4.0,4.0,24,0.00,,,0.00,Wunderground v.1.15,2013-07-27 22:50:00,
2013-07-27 15:55:00,94.3,52.0,29.80,SW,229,4.0,4.0,24,0.00,,,0.00,Wunderground v.1.15,2013-07-27 22:55:00,
2013-07-27 16:00:00,94.3,53.1,29.80,SE,126,3.0,6.0,25,0.00,,,0.00,Wunderground v.1.15,2013-07-27 23:00:00,
2013-07-27 16:10:00,94.0,50.6,29.80,ESE,119,4.0,4.0,23,0.00,,,0.00,Wunderground v.1.15,2013-07-27 23:10:00,
2013-07-27 16:15:00,93.6,50.2,29.79,ESE,119,5.0,7.0,23,0.00,,,0.00,Wunderground v.1.15,2013-07-27 23:15:00,
2013-07-27 16:20:00,93.6,51.4,29.79,East,82,5.0,5.0,24,0.00,,,0.00,Wunderground v.1.15,2013-07-27 23:20:00,
2013-07-27 16:25:00,94.3,52.0,29.79,East,89,4.0,5.0,24,0.00,,,0.00,Wunderground v.1.15,2013-07-27 23:25:00,
2013-07-27 16:30:00,94.5,52.1,29.78,East,98,3.0,3.0,24,0.00,,,0.00,Wunderground v.1.15,2013-07-27 23:30:00,
2013-07-27 16:40:00,94.3,52.0,29.78,East,79,4.0,4.0,24,0.00,,,0.00,Wunderground v.1.15,2013-07-27 23:40:00,
2013-07-27 16:45:00,94.3,53.1,29.78,ENE,63,5.0,5.0,25,0.00,,,0.00,Wunderground v.1.15,2013-07-27 23:45:00,
2013-07-27 16:50:00,94.3,53.1,29.78,East,98,4.0,9.0,25,0.00,,,0.00,Wunderground v.1.15,2013-07-27 23:50:00,
2013-07-27 17:00:00,93.6,52.5,29.77,ENE,70,6.0,6.0,25,0.00,,,0.00,Wunderground v.1.15,2013-07-28 00:00:00,
2013-07-27 17:05:00,93.4,52.3,29.77,ESE,117,6.0,6.0,25,0.00,,,0.00,Wunderground v.1.15,2013-07-28 00:05:00,
2013-07-27 17:10:00,93.8,52.7,29.77,East,98,6.0,7.0,25,0.00,,,0.00,Wunderground v.1.15,2013-07-28 00:10:00,
2013-07-27 17:15:00,93.6,53.6,29.77,East,101,5.0,8.0,26,0.00,,,0.00,Wunderground v.1.15,2013-07-28 00:15:00,
2013-07-27 17:20:00,93.8,52.7,29.77,North,9,4.0,4.0,25,0.00,,,0.00,Wunderground v.1.15,2013-07-28 00:20:00,
2013-07-27 17:30:00,93.4,52.3,29.77,South,177,4.0,6.0,25,0.00,,,0.00,Wunderground v.1.15,2013-07-28 00:30:00,
2013-07-27 17:35:00,92.7,52.8,29.77,SSE,162,4.0,6.0,26,0.00,,,0.00,Wunderground v.1.15,2013-07-28 00:35:00,
2013-07-27 17:40:00,92.9,53.0,29.77,ESE,115,4.0,4.0,26,0.00,,,0.00,Wunderground v.1.15,2013-07-28 00:40:00,
2013-07-27 17:50:00,92.5,53.7,29.77,East,80,5.0,5.0,27,0.00,,,0.00,Wunderground v.1.15,2013-07-28 00:50:00,
2013-07-27 17:55:00,92.1,53.3,29.77,ENE,76,6.0,6.0,27,0.00,,,0.00,Wunderground v.1.15,2013-07-28 00:55:00,
2013-07-27 18:00:00,92.3,53.5,29.76,ENE,76,5.0,5.0,27,0.00,,,0.00,Wunderground v.1.15,2013-07-28 01:00:00,
2013-07-27 18:10:00,92.3,53.5,29.76,SSE,159,4.0,4.0,27,0.00,,,0.00,Wunderground v.1.15,2013-07-28 01:10:00,
2013-07-27 18:15:00,92.1,53.3,29.76,East,79,3.0,4.0,27,0.00,,,0.00,Wunderground v.1.15,2013-07-28 01:15:00,
2013-07-27 18:20:00,91.8,53.1,29.76,East,84,3.0,3.0,27,0.00,,,0.00,Wunderground v.1.15,2013-07-28 01:20:00,
2013-07-27 18:30:00,91.2,52.5,29.76,ESE,109,3.0,3.0,27,0.00,,,0.00,Wunderground v.1.15,2013-07-28 01:30:00,
2013-07-27 18:35:00,91.4,51.7,29.76,NE,54,3.0,3.0,26,0.00,,,0.00,Wunderground v.1.15,2013-07-28 01:35:00,
2013-07-27 18:40:00,91.2,52.5,29.76,East,81,3.0,3.0,27,0.00,,,0.00,Wunderground v.1.15,2013-07-28 01:40:00,
2013-07-27 18:50:00,90.7,52.1,29.76,ESE,103,3.0,7.0,27,0.00,,,0.00,Wunderground v.1.15,2013-07-28 01:50:00,
2013-07-27 19:00:00,89.9,52.4,29.76,ESE,123,4.0,8.0,28,0.00,,,0.00,Wunderground v.1.15,2013-07-28 02:00:00,
2013-07-27 19:05:00,89.5,51.1,29.76,ESE,106,4.0,8.0,27,0.00,,,0.00,Wunderground v.1.15,2013-07-28 02:05:00,
2013-07-27 19:10:00,89.0,51.7,29.76,ESE,111,4.0,4.0,28,0.00,,,0.00,Wunderground v.1.15,2013-07-28 02:10:00,
2013-07-27 19:20:00,88.4,52.1,29.76,ENE,78,3.0,3.0,29,0.00,,,0.00,Wunderground v.1.15,2013-07-28 02:20:00,
2013-07-27 19:25:00,87.8,52.5,29.76,SE,133,4.0,5.0,30,0.00,,,0.00,Wunderground v.1.15,2013-07-28 02:25:00,
2013-07-27 19:30:00,87.6,52.3,29.76,ESE,118,4.0,5.0,30,0.00,,,0.00,Wunderground v.1.15,2013-07-28 02:30:00,
2013-07-27 19:40:00,86.5,53.1,29.76,East,93,3.0,5.0,32,0.00,,,0.00,Wunderground v.1.15,2013-07-28 02:40:00,
2013-07-27 19:45:00,85.9,53.5,29.76,ESE,102,3.0,5.0,33,0.00,,,0.00,Wunderground v.1.15,2013-07-28 02:45:00,
2013-07-27 19:50:00,85.5,53.9,29.76,East,93,2.0,2.0,34,0.00,,,0.00,Wunderground v.1.15,2013-07-28 02:50:00,
2013-07-27 19:55:00,84.9,54.2,29.76,SE,135,1.0,2.0,35,0.00,,,0.00,Wunderground v.1.15,2013-07-28 02:55:00,
2013-07-27 20:05:00,84.3,53.7,29.77,SE,134,0.0,0.0,35,0.00,,,0.00,Wunderground v.1.15,2013-07-28 03:05:00,
2013-07-27 20:10:00,83.8,53.2,29.77,SE,134,0.0,0.0,35,0.00,,,0.00,Wunderground v.1.15,2013-07-28 03:10:00,
2013-07-27 20:15:00,83.4,53.6,29.77,SE,145,0.0,0.0,36,0.00,,,0.00,Wunderground v.1.15,2013-07-28 03:15:00,
2013-07-27 20:25:00,82.6,53.7,29.77,SE,146,0.0,0.0,37,0.00,,,0.00,Wunderground v.1.15,2013-07-28 03:25:00,
2013-07-27 20:35:00,81.1,53.8,29.77,SW,215,1.0,1.0,39,0.00,,,0.00,Wunderground v.1.15,2013-07-28 03:35:00,
2013-07-27 20:40:00,80.5,54.0,29.77,East,100,0.0,0.0,40,0.00,,,0.00,Wunderground v.1.15,2013-07-28 03:40:00,
2013-07-27 20:50:00,79.6,53.8,29.77,South,184,0.0,0.0,41,0.00,,,0.00,Wunderground v.1.15,2013-07-28 03:50:00,
2013-07-27 20:55:00,79.2,54.1,29.77,SE,125,0.0,0.0,42,0.00,,,0.00,Wunderground v.1.15,2013-07-28 03:55:00,
2013-07-27 21:00:00,79.0,53.9,29.78,South,181,0.0,0.0,42,0.00,,,0.00,Wunderground v.1.15,2013-07-28 04:00:00,
2013-07-27 21:05:00,78.6,54.2,29.78,South,181,0.0,0.0,43,0.00,,,0.00,Wunderground v.1.15,2013-07-28 04:05:00,
2013-07-27 21:10:00,78.5,54.1,29.78,SSE,148,0.0,0.0,43,0.00,,,0.00,Wunderground v.1.15,2013-07-28 04:10:00,
2013-07-27 21:15:00,77.9,53.6,29.78,SSE,161,1.0,1.0,43,0.00,,,0.00,Wunderground v.1.15,2013-07-28 04:15:00,
2013-07-27 21:25:00,77.4,54.4,29.78,SE,132,3.0,4.0,45,0.00,,,0.00,Wunderground v.1.15,2013-07-28 04:25:00,
2013-07-27 21:30:00,77.0,54.0,29.79,SW,236,3.0,3.0,45,0.00,,,0.00,Wunderground v.1.15,2013-07-28 04:30:00,
2013-07-27 21:40:00,76.5,54.2,29.79,SSE,150,2.0,2.0,46,0.00,,,0.00,Wunderground v.1.15,2013-07-28 04:40:00,
2013-07-27 21:45:00,76.3,54.0,29.79,SSW,197,1.0,2.0,46,0.00,,,0.00,Wunderground v.1.15,2013-07-28 04:45:00,
2013-07-27 21:50:00,76.1,54.4,29.79,West,259,0.0,0.0,47,0.00,,,0.00,Wunderground v.1.15,2013-07-28 04:50:00,
2013-07-27 22:00:00,75.6,53.9,29.79,SE,124,0.0,2.0,47,0.00,,,0.00,Wunderground v.1.15,2013-07-28 05:00:00,
2013-07-27 22:05:00,75.1,54.1,29.79,SE,124,0.0,2.0,48,0.00,,,0.00,Wunderground v.1.15,2013-07-28 05:05:00,
2013-07-27 22:15:00,74.4,54.5,29.79,SE,131,0.0,0.0,50,0.00,,,0.00,Wunderground v.1.15,2013-07-28 05:15:00,
2013-07-27 22:20:00,74.0,54.2,29.79,SE,131,0.0,0.0,50,0.00,,,0.00,Wunderground v.1.15,2013-07-28 05:20:00,
2013-07-27 22:25:00,73.9,54.1,29.79,SE,131,0.0,0.0,50,0.00,,,0.00,Wunderground v.1.15,2013-07-28 05:25:00,
2013-07-27 22:30:00,73.5,53.7,29.80,SE,131,0.0,0.0,50,0.00,,,0.00,Wunderground v.1.15,2013-07-28 05:30:00,
2013-07-27 22:35:00,73.3,54.1,29.80,SE,131,0.0,0.0,51,0.00,,,0.00,Wunderground v.1.15,2013-07-28 05:35:00,
2013-07-27 22:40:00,73.2,54.0,29.80,SE,131,0.0,0.0,51,0.00,,,0.00,Wunderground v.1.15,2013-07-28 05:40:00,
2013-07-27 22:50:00,72.3,54.2,29.80,SE,131,0.0,0.0,53,0.00,,,0.00,Wunderground v.1.15,2013-07-28 05:50:00,
2013-07-27 22:55:00,72.0,53.9,29.80,SE,131,0.0,0.0,53,0.00,,,0.00,Wunderground v.1.15,2013-07-28 05:55:00,
2013-07-27 23:05:00,71.6,54.1,29.80,SSW,200,0.0,1.0,54,0.00,,,0.00,Wunderground v.1.15,2013-07-28 06:05:00,
2013-07-27 23:10:00,71.6,54.1,29.80,SSW,200,0.0,0.0,54,0.00,,,0.00,Wunderground v.1.15,2013-07-28 06:10:00,
2013-07-27 23:15:00,71.6,54.1,29.80,SSW,200,0.0,0.0,54,0.00,,,0.00,Wunderground v.1.15,2013-07-28 06:15:00,
2013-07-27 23:20:00,71.5,54.0,29.80,SSW,200,0.0,0.0,54,0.00,,,0.00,Wunderground v.1.15,2013-07-28 06:20:00,
2013-07-27 23:25:00,71.1,53.6,29.80,SSW,200,0.0,1.0,54,0.00,,,0.00,Wunderground v.1.15,2013-07-28 06:25:00,
2013-07-27 23:30:00,71.1,54.1,29.80,South,187,0.0,3.0,55,0.00,,,0.00,Wunderground v.1.15,2013-07-28 06:30:00,
2013-07-27 23:40:00,70.6,53.6,29.80,ESE,119,0.0,1.0,55,0.00,,,0.00,Wunderground v.1.15,2013-07-28 06:40:00,
2013-07-27 23:45:00,70.4,54.0,29.80,SE,146,0.0,1.0,56,0.00,,,0.00,Wunderground v.1.15,2013-07-28 06:45:00,
2013-07-27 23:50:00,70.3,53.9,29.80,SE,146,0.0,0.0,56,0.00,,,0.00,Wunderground v.1.15,2013-07-28 06:50:00,